aviador You're here:

KSBA Decoded Metar

SANTA BARBARA in CA, USA
Report Time2017-11-23 21:53:00
UTC Time2017-11-23 22:25:14
Flight Rules vfr VFR
Wind250° at 03 kt
W.Decomp.*RWY 25: 2.9 kt HW 0.7 kt LCW
RWY 15: 0.2 kt HW 3.0 kt RCW
W.Rank250° ranks 2
Current wind is below 250° avg. (7.3)
Visibility9999 m
Phenomena:N/A
Clouds:N/A
Expected CloudBase > 4,400 ft AGL from Temp-Dew spread
CeilingNone
Temp23°C (ISA +8)
Dew Point12°C (50% RH)
AAT22.5°C
QNH1014 hPa
Density Alt1,099 ft
Elevation10 ft
Report Wrong Elevation
Raw Report
METAR KSBA 232153Z 25003KT 10SM CLR 23/12 A2994 RMK AO2 SLP137 T02330117=

Extra information for KSBA:More info

Metar Taf Metar & Taf Last 4 Metars F.Rules Stats Wind Profile Meteogram Temp Stats Airport Information Weather charts Add Link Nearby VenuesMetar ALERT Operation Metar Decoded Social comments

AIRNAV info for KSBA